Time;durP1;ratioP1;P1;durP2;ratioP2;P2;SDS_P1;SDS_P2;PMS_P1;PMS_P2;Temp;Humidity;BMP_temperature;BMP_pressure;BME280_temperature;BME280_humidity;BME280_pressure;Samples;Min_cycle;Max_cycle;Signal;HPM_P1;HPM_P2
2022/08/08 00:01:56;;;;;;;4.82;4.28;;;23.20;1.00;;;;;;4951348;28;20436;-77
2022/08/08 00:04:51;;;;;;;5.20;4.80;;;23.20;1.00;;;;;;4951326;28;20526;-76
2022/08/08 00:07:30;;;;;;;4.90;4.50;;;23.10;1.00;;;;;;4946666;28;20050;-77
2022/08/08 00:10:16;;;;;;;4.57;4.28;;;22.70;1.00;;;;;;4951967;28;20094;-77
2022/08/08 00:13:20;;;;;;;4.65;4.32;;;22.90;1.00;;;;;;4951541;28;20053;-76
2022/08/08 00:16:06;;;;;;;4.90;4.50;;;22.90;1.00;;;;;;4951156;29;20063;-77
2022/08/08 00:18:35;;;;;;;5.15;4.75;;;22.90;1.00;;;;;;4943035;28;20577;-78
2022/08/08 00:21:01;;;;;;;5.32;4.78;;;22.90;1.00;;;;;;4970763;28;20039;-77
2022/08/08 00:23:36;;;;;;;5.20;4.70;;;22.90;1.00;;;;;;4970951;28;20061;-76
2022/08/08 00:26:06;;;;;;;5.15;4.75;;;22.80;1.00;;;;;;4979150;28;20045;-77
2022/08/08 00:28:47;;;;;;;4.95;4.35;;;22.80;1.00;;;;;;5017950;28;20057;-77
2022/08/08 00:31:31;;;;;;;5.55;4.63;;;22.60;1.00;;;;;;5031361;28;20025;-77
2022/08/08 00:36:55;;;;;;;5.03;4.63;;;22.60;1.00;;;;;;5031762;28;20049;-77
2022/08/08 00:39:35;;;;;;;5.38;4.93;;;22.40;1.00;;;;;;5031716;28;20496;-77
2022/08/08 00:42:59;;;;;;;5.05;4.65;;;22.40;1.00;;;;;;5031707;28;20017;-77
2022/08/08 00:45:45;;;;;;;5.60;5.10;;;22.30;1.00;;;;;;4951067;29;20027;-76
2022/08/08 00:48:32;;;;;;;5.28;4.88;;;22.30;1.00;;;;;;4951128;29;20035;-77
2022/08/08 00:51:16;;;;;;;5.32;4.82;;;22.40;1.00;;;;;;4951255;29;20043;-78
2022/08/08 00:54:13;;;;;;;7.82;4.57;;;22.30;1.00;;;;;;4951348;29;20106;-76
2022/08/08 00:57:06;;;;;;;6.63;4.65;;;22.30;1.00;;;;;;4951423;29;20066;-76
2022/08/08 00:59:46;;;;;;;5.35;4.95;;;22.30;1.00;;;;;;4950762;29;20035;-77
2022/08/08 01:02:39;;;;;;;5.53;4.60;;;22.30;1.00;;;;;;4952278;28;20085;-76
2022/08/08 01:05:19;;;;;;;5.55;4.90;;;22.20;1.00;;;;;;4954456;29;20043;-76
2022/08/08 01:08:13;;;;;;;5.20;4.70;;;22.10;1.00;;;;;;4954959;29;20083;-77
2022/08/08 01:10:38;;;;;;;5.00;4.65;;;22.00;1.00;;;;;;4954405;29;20062;-76
2022/08/08 01:13:28;;;;;;;5.72;5.13;;;21.80;1.00;;;;;;4953972;29;20487;-77
2022/08/08 01:15:59;;;;;;;5.30;4.90;;;21.80;1.00;;;;;;4984296;28;20041;-77
2022/08/08 01:18:51;;;;;;;5.30;4.80;;;21.80;1.00;;;;;;5034402;28;20041;-77
2022/08/08 01:21:34;;;;;;;5.35;4.85;;;21.80;1.00;;;;;;4954555;29;20075;-77
2022/08/08 01:24:39;;;;;;;5.05;4.65;;;21.50;1.00;;;;;;4954384;29;20397;-77
2022/08/08 01:27:22;;;;;;;5.60;4.85;;;21.40;1.00;;;;;;4954116;29;20102;-75
2022/08/08 01:30:27;;;;;;;6.20;4.95;;;21.30;1.00;;;;;;4954094;28;20529;-76
2022/08/08 01:33:04;;;;;;;5.38;4.97;;;21.50;1.00;;;;;;4954043;29;20484;-77
2022/08/08 01:36:12;;;;;;;5.10;4.60;;;21.50;1.00;;;;;;4954355;29;20032;-76
2022/08/08 01:38:56;;;;;;;4.97;4.57;;;21.30;1.00;;;;;;4954138;29;20051;-77
2022/08/08 01:41:30;;;;;;;5.70;5.20;;;21.40;1.00;;;;;;4953948;29;20035;-76
2022/08/08 01:44:10;;;;;;;5.25;4.85;;;21.50;1.00;;;;;;4953709;29;20031;-77
2022/08/08 01:47:00;;;;;;;5.05;4.65;;;21.60;1.00;;;;;;4954063;29;20023;-76
2022/08/08 01:49:34;;;;;;;5.75;4.60;;;21.50;1.00;;;;;;4953771;29;20046;-76
2022/08/08 01:52:18;;;;;;;5.20;4.72;;;21.60;1.00;;;;;;4953897;29;20042;-76
2022/08/08 01:54:50;;;;;;;6.93;4.60;;;21.60;1.00;;;;;;4954110;29;20508;-77
2022/08/08 01:57:43;;;;;;;5.10;4.70;;;21.20;1.00;;;;;;4966042;28;20046;-76
2022/08/08 02:00:18;;;;;;;6.80;4.90;;;21.30;1.00;;;;;;5034284;28;20367;-76
2022/08/08 02:03:05;;;;;;;6.50;4.53;;;21.50;1.00;;;;;;5033730;28;20026;-77
2022/08/08 02:06:00;;;;;;;5.40;5.00;;;21.50;1.00;;;;;;5033670;28;20057;-77
2022/08/08 02:08:56;;;;;;;5.07;4.60;;;21.20;1.00;;;;;;5033782;28;20029;-77
2022/08/08 02:11:40;;;;;;;5.65;4.75;;;20.90;1.00;;;;;;5033221;28;20033;-76
2022/08/08 02:14:46;;;;;;;5.05;4.65;;;20.90;1.00;;;;;;5033522;28;20477;-77
2022/08/08 02:17:19;;;;;;;5.95;5.25;;;20.80;1.00;;;;;;4952907;29;20051;-76
2022/08/08 02:19:53;;;;;;;5.30;4.80;;;21.00;1.00;;;;;;4953221;29;20035;-76
2022/08/08 02:22:32;;;;;;;5.20;4.80;;;20.80;1.00;;;;;;4953151;29;20110;-76
2022/08/08 02:25:26;;;;;;;5.43;4.93;;;20.70;1.00;;;;;;4953064;29;20373;-76
2022/08/08 02:28:04;;;;;;;5.15;4.65;;;20.90;1.00;;;;;;4952984;28;20047;-77
2022/08/08 02:30:29;;;;;;;5.30;4.85;;;20.90;1.00;;;;;;4953522;29;20023;-76
2022/08/08 02:33:11;;;;;;;4.95;4.53;;;20.80;1.00;;;;;;4953692;29;20039;-76
2022/08/08 02:36:02;;;;;;;5.40;4.70;;;20.90;1.00;;;;;;4952938;29;20034;-76
2022/08/08 02:38:54;;;;;;;4.90;4.47;;;20.70;1.00;;;;;;4953028;29;20065;-76
2022/08/08 02:41:38;;;;;;;4.75;4.35;;;20.80;1.00;;;;;;4952470;29;20028;-77
2022/08/08 02:44:41;;;;;;;6.05;5.03;;;20.80;1.00;;;;;;4953322;29;20484;-76
2022/08/08 02:47:37;;;;;;;5.10;4.60;;;20.60;1.00;;;;;;4936384;29;20047;-76
2022/08/08 02:50:24;;;;;;;4.97;4.47;;;20.50;1.00;;;;;;4952749;29;20043;-76
2022/08/08 02:53:36;;;;;;;5.85;4.75;;;20.50;1.00;;;;;;4992860;28;20044;-76
2022/08/08 02:56:07;;;;;;;5.55;4.97;;;20.60;1.00;;;;;;5032626;28;20040;-75
2022/08/08 02:58:50;;;;;;;5.07;4.57;;;20.50;1.00;;;;;;5033032;28;20033;-76
2022/08/08 03:01:47;;;;;;;5.20;4.80;;;20.50;1.00;;;;;;5032884;28;20021;-76
2022/08/08 03:04:52;;;;;;;5.00;4.60;;;20.30;1.00;;;;;;5032800;28;20509;-76
2022/08/08 03:07:42;;;;;;;4.93;4.53;;;20.30;1.00;;;;;;5032605;28;20107;-76
2022/08/08 03:10:40;;;;;;;5.25;4.75;;;20.20;1.00;;;;;;5032210;28;20075;-76
2022/08/08 03:13:44;;;;;;;4.90;4.50;;;20.40;1.00;;;;;;5032492;28;20021;-76
2022/08/08 03:16:31;;;;;;;4.80;4.40;;;20.40;1.00;;;;;;5032404;28;20022;-76
2022/08/08 03:19:15;;;;;;;5.25;4.68;;;20.30;1.00;;;;;;5032141;28;20029;-76
2022/08/08 03:21:40;;;;;;;4.80;4.40;;;20.10;1.00;;;;;;5031422;28;20552;-76
2022/08/08 03:24:06;;;;;;;4.90;4.40;;;20.20;1.00;;;;;;5031801;28;20118;-76
2022/08/08 03:26:38;;;;;;;4.60;4.20;;;20.10;1.00;;;;;;5032244;28;20041;-76
2022/08/08 03:29:08;;;;;;;4.85;4.50;;;20.20;1.00;;;;;;5032266;28;20095;-76
2022/08/08 03:34:19;;;;;;;4.80;4.50;;;20.00;1.00;;;;;;5032521;28;20028;-76
2022/08/08 03:36:45;;;;;;;5.50;4.97;;;20.10;1.00;;;;;;5032091;28;20029;-76
2022/08/08 03:39:11;;;;;;;5.38;4.80;;;19.90;1.00;;;;;;5031928;28;20029;-76
2022/08/08 03:41:37;;;;;;;5.60;4.85;;;20.00;1.00;;;;;;5031194;28;20116;-75
2022/08/08 03:44:03;;;;;;;5.80;5.03;;;20.10;1.00;;;;;;5032018;28;20500;-76
2022/08/08 03:46:29;;;;;;;5.10;4.70;;;20.20;1.00;;;;;;5032365;28;20109;-76
2022/08/08 03:48:56;;;;;;;5.40;4.90;;;20.10;1.00;;;;;;5032075;28;20100;-76
2022/08/08 03:51:23;;;;;;;5.63;5.13;;;19.90;1.00;;;;;;5032330;28;20029;-76
2022/08/08 03:53:50;;;;;;;5.35;4.85;;;20.00;1.00;;;;;;5031679;28;20386;-76
2022/08/08 03:56:17;;;;;;;5.38;4.97;;;19.90;1.00;;;;;;5032227;28;20021;-75
2022/08/08 03:58:47;;;;;;;5.35;4.85;;;19.70;1.00;;;;;;5032043;28;20033;-76
2022/08/08 04:01:13;;;;;;;5.28;4.78;;;19.80;1.00;;;;;;5032101;28;20069;-76
2022/08/08 04:03:39;;;;;;;5.32;4.82;;;19.60;1.00;;;;;;5032030;28;20026;-76
2022/08/08 04:06:06;;;;;;;5.78;5.10;;;19.70;1.00;;;;;;5032183;28;20030;-75
2022/08/08 04:08:35;;;;;;;5.32;4.82;;;19.60;1.00;;;;;;5031643;28;20022;-76
2022/08/08 04:11:03;;;;;;;5.68;5.10;;;19.60;1.00;;;;;;5031844;28;20026;-76
2022/08/08 04:13:29;;;;;;;6.40;4.68;;;19.50;1.00;;;;;;5031838;28;20033;-76
2022/08/08 04:15:54;;;;;;;4.78;4.38;;;19.50;1.00;;;;;;5032032;28;20022;-76
2022/08/08 04:18:20;;;;;;;5.45;4.90;;;19.50;1.00;;;;;;5031937;28;20041;-76
2022/08/08 04:20:45;;;;;;;6.53;5.10;;;19.50;1.00;;;;;;5031784;28;20036;-76
2022/08/08 04:23:11;;;;;;;4.93;4.55;;;19.50;1.00;;;;;;5031560;28;20025;-76
2022/08/08 04:25:37;;;;;;;4.90;4.50;;;19.50;1.00;;;;;;5031734;28;20057;-76
2022/08/08 04:28:03;;;;;;;4.72;4.32;;;19.40;1.00;;;;;;5031739;28;20053;-76
2022/08/08 04:30:28;;;;;;;4.70;4.20;;;19.30;1.00;;;;;;5031398;28;20083;-76
2022/08/08 04:32:55;;;;;;;5.18;4.35;;;19.20;1.00;;;;;;5032055;28;20052;-76
2022/08/08 04:35:21;;;;;;;4.82;4.43;;;19.30;1.00;;;;;;5031696;28;20037;-76
2022/08/08 04:37:46;;;;;;;5.00;4.57;;;19.40;1.00;;;;;;5034947;28;20033;-76
2022/08/08 04:40:12;;;;;;;4.70;4.30;;;19.40;1.00;;;;;;5035315;28;20464;-76
2022/08/08 04:42:38;;;;;;;6.90;4.30;;;19.40;1.00;;;;;;5035194;28;20048;-76
2022/08/08 04:45:05;;;;;;;5.35;4.57;;;19.30;1.00;;;;;;5035166;28;20072;-76
2022/08/08 04:47:31;;;;;;;5.05;4.35;;;19.30;1.00;;;;;;5035370;28;20397;-74
2022/08/08 04:49:56;;;;;;;7.82;4.45;;;19.50;1.00;;;;;;5034951;28;20034;-76
2022/08/08 04:52:22;;;;;;;5.05;4.65;;;19.30;1.00;;;;;;5035152;28;20446;-76
2022/08/08 04:54:47;;;;;;;4.70;4.30;;;19.40;1.00;;;;;;5034732;28;20033;-76
2022/08/08 04:57:13;;;;;;;4.47;4.07;;;19.50;1.00;;;;;;5034900;28;20045;-76
2022/08/08 04:59:39;;;;;;;4.70;4.13;;;19.40;1.00;;;;;;5034468;28;20021;-77
2022/08/08 05:02:05;;;;;;;4.57;4.18;;;19.40;1.00;;;;;;5035000;28;20111;-77
2022/08/08 05:04:30;;;;;;;4.63;4.22;;;19.50;1.00;;;;;;5035359;28;20036;-77
2022/08/08 05:06:57;;;;;;;4.55;3.90;;;19.60;1.00;;;;;;5034380;28;20565;-77
2022/08/08 05:09:22;;;;;;;4.40;4.00;;;19.40;1.00;;;;;;5034996;28;20087;-77
2022/08/08 05:11:48;;;;;;;4.88;4.20;;;19.30;1.00;;;;;;5034984;28;20069;-77
2022/08/08 05:14:14;;;;;;;5.60;4.20;;;19.30;1.00;;;;;;5034796;28;20018;-77
2022/08/08 05:16:41;;;;;;;4.70;4.15;;;19.40;1.00;;;;;;5034663;28;20502;-77
2022/08/08 05:19:11;;;;;;;4.40;4.00;;;19.50;1.00;;;;;;5034147;28;20552;-75
2022/08/08 05:21:41;;;;;;;4.90;4.47;;;19.50;1.00;;;;;;5034987;28;20128;-78
2022/08/08 05:24:07;;;;;;;6.65;4.05;;;19.50;1.00;;;;;;5034632;28;20120;-76
2022/08/08 05:26:34;;;;;;;4.40;4.00;;;19.40;1.00;;;;;;5034133;28;20048;-76
2022/08/08 05:29:02;;;;;;;5.15;4.35;;;19.40;1.00;;;;;;5033993;28;20391;-76
2022/08/08 05:31:29;;;;;;;6.32;3.92;;;19.60;1.00;;;;;;5034481;28;20038;-75
2022/08/08 05:33:54;;;;;;;4.40;3.92;;;19.60;1.00;;;;;;5033679;28;20032;-75
2022/08/08 05:36:24;;;;;;;5.70;4.10;;;19.60;1.00;;;;;;5033756;28;20029;-75
2022/08/08 05:38:51;;;;;;;5.05;3.90;;;19.50;1.00;;;;;;5034677;28;20502;-76
2022/08/08 05:41:20;;;;;;;4.20;3.90;;;19.50;1.00;;;;;;5034847;28;20501;-83
2022/08/08 05:43:46;;;;;;;4.10;3.80;;;19.50;1.00;;;;;;5032645;28;20036;-84
2022/08/08 05:46:13;;;;;;;4.13;3.72;;;19.60;1.00;;;;;;5033936;28;20039;-84
2022/08/08 05:48:39;;;;;;;5.43;3.85;;;19.50;1.00;;;;;;5033401;28;20068;-84
2022/08/08 05:51:05;;;;;;;4.15;3.75;;;19.70;1.00;;;;;;5034306;28;20516;-84
2022/08/08 05:53:30;;;;;;;9.65;3.88;;;19.80;1.00;;;;;;5033978;28;20100;-84
2022/08/08 05:55:58;;;;;;;5.13;3.47;;;19.90;1.00;;;;;;5033937;28;20112;-84
2022/08/08 05:58:28;;;;;;;4.60;3.85;;;19.90;1.00;;;;;;5033214;28;20034;-84
2022/08/08 06:00:59;;;;;;;4.68;3.60;;;19.90;1.00;;;;;;5033787;28;20021;-85
2022/08/08 06:03:27;;;;;;;5.88;3.70;;;20.10;1.00;;;;;;5033507;28;20362;-83
2022/08/08 06:05:55;;;;;;;4.07;3.65;;;20.30;1.00;;;;;;5033904;28;20022;-83
2022/08/08 06:08:29;;;;;;;5.22;4.28;;;20.40;1.00;;;;;;5034054;28;20524;-83
2022/08/08 06:10:57;;;;;;;6.35;3.78;;;20.30;1.00;;;;;;5033545;28;20030;-83
2022/08/08 06:13:25;;;;;;;10.25;5.13;;;20.40;1.00;;;;;;5034042;28;20062;-83
2022/08/08 06:15:55;;;;;;;4.60;3.70;;;20.60;1.00;;;;;;5033616;28;20014;-83
2022/08/08 06:18:25;;;;;;;6.35;3.92;;;20.60;1.00;;;;;;5033720;28;20048;-83
2022/08/08 06:20:53;;;;;;;5.75;3.53;;;20.60;1.00;;;;;;5033578;28;20033;-83
2022/08/08 06:23:20;;;;;;;3.92;3.20;;;20.90;1.00;;;;;;5033517;28;20029;-83
2022/08/08 06:25:55;;;;;;;8.35;2.90;;;21.00;1.00;;;;;;5033344;28;20056;-83
2022/08/08 06:28:31;;;;;;;8.23;3.35;;;21.00;1.00;;;;;;5033682;28;20030;-84
2022/08/08 06:31:03;;;;;;;5.15;2.90;;;21.00;1.00;;;;;;5031348;28;20030;-82
2022/08/08 06:33:43;;;;;;;6.07;2.70;;;21.10;1.00;;;;;;5021756;28;20060;-83
2022/08/08 06:36:10;;;;;;;5.75;2.67;;;21.10;1.00;;;;;;5020787;28;20026;-82
2022/08/08 06:38:39;;;;;;;3.28;2.63;;;21.00;1.00;;;;;;5033196;28;20021;-82
2022/08/08 06:41:11;;;;;;;4.65;2.40;;;21.10;1.00;;;;;;5033053;28;20061;-81
2022/08/08 06:43:42;;;;;;;5.40;2.65;;;21.20;1.00;;;;;;5018425;28;20056;-80
2022/08/08 06:46:09;;;;;;;6.18;2.83;;;21.20;1.00;;;;;;5033142;28;20374;-78
2022/08/08 06:48:35;;;;;;;3.22;2.55;;;21.20;1.00;;;;;;5033526;28;20029;-77
2022/08/08 06:51:02;;;;;;;4.93;2.55;;;21.90;1.00;;;;;;5031686;28;20799;-76
2022/08/08 06:53:28;;;;;;;5.55;2.55;;;22.20;1.00;;;;;;5032497;28;20041;-84
2022/08/08 06:55:54;;;;;;;5.68;2.50;;;21.90;1.00;;;;;;5033067;28;20557;-81
2022/08/08 06:58:20;;;;;;;6.32;2.42;;;21.70;1.00;;;;;;5032641;28;20133;-82
2022/08/08 07:00:49;;;;;;;4.43;2.47;;;22.80;1.00;;;;;;5031462;28;20385;-82
2022/08/08 07:03:29;;;;;;;4.40;2.63;;;23.90;1.00;;;;;;5032713;28;20029;-80
2022/08/08 07:05:59;;;;;;;3.85;2.30;;;23.30;1.00;;;;;;5032976;28;20022;-81
2022/08/08 07:08:33;;;;;;;5.00;2.67;;;23.00;1.00;;;;;;5032559;28;20497;-88
2022/08/08 07:11:03;;;;;;;3.65;2.70;;;22.80;1.00;;;;;;5032468;28;20026;-82
2022/08/08 07:13:42;;;;;;;2.70;2.50;;;23.20;1.00;;;;;;5032899;28;20025;-81
2022/08/08 07:16:18;;;;;;;4.70;2.60;;;23.40;1.00;;;;;;5028987;28;20037;-81
2022/08/08 07:19:19;;;;;;;2.90;2.60;;;23.40;1.00;;;;;;5024691;28;20112;-84
2022/08/08 07:21:55;;;;;;;2.83;2.63;;;22.80;1.00;;;;;;4952457;29;20027;-80
2022/08/08 07:24:49;;;;;;;5.30;2.70;;;22.70;1.00;;;;;;4933941;29;20083;-81
2022/08/08 07:27:20;;;;;;;3.08;2.72;;;22.70;1.00;;;;;;4936166;29;20139;-81
2022/08/08 07:29:46;;;;;;;4.60;2.63;;;22.80;1.00;;;;;;4951932;28;20114;-81
2022/08/08 07:32:14;;;;;;;3.47;2.50;;;22.70;1.00;;;;;;4949604;29;20488;-81
2022/08/08 07:34:42;;;;;;;4.80;2.60;;;22.50;1.00;;;;;;4933185;29;20035;-82
2022/08/08 07:37:10;;;;;;;3.50;2.40;;;22.70;1.00;;;;;;4932652;29;20161;-81
2022/08/08 07:39:42;;;;;;;3.30;2.85;;;23.30;1.00;;;;;;4933410;29;20047;-81
2022/08/08 07:42:12;;;;;;;3.20;2.40;;;23.70;1.00;;;;;;4932687;29;20187;-81
2022/08/08 07:44:40;;;;;;;5.35;2.60;;;23.40;1.00;;;;;;4932409;29;20027;-81
2022/08/08 07:47:06;;;;;;;6.00;2.72;;;23.90;1.00;;;;;;4932879;29;20042;-81
2022/08/08 07:49:32;;;;;;;4.88;2.70;;;23.80;1.00;;;;;;4932703;29;20043;-81
2022/08/08 07:51:59;;;;;;;5.60;2.80;;;23.90;1.00;;;;;;4932732;29;20032;-81
2022/08/08 07:54:33;;;;;;;3.85;3.08;;;23.60;1.00;;;;;;4933138;29;20059;-81
2022/08/08 07:57:29;;;;;;;4.60;2.97;;;23.30;1.00;;;;;;5012088;28;20033;-82
2022/08/08 08:00:03;;;;;;;7.72;3.08;;;23.20;1.00;;;;;;4931725;29;20139;-82
2022/08/08 08:02:38;;;;;;;11.32;2.80;;;22.90;1.00;;;;;;4933038;29;20031;-82
2022/08/08 08:05:10;;;;;;;5.90;2.90;;;23.00;1.00;;;;;;4932392;29;20155;-82
2022/08/08 08:07:37;;;;;;;7.18;2.80;;;23.00;1.00;;;;;;4932489;29;20530;-82
2022/08/08 08:10:04;;;;;;;3.78;2.80;;;23.10;1.00;;;;;;4932382;29;20040;-81
2022/08/08 08:12:30;;;;;;;7.82;3.17;;;23.30;1.00;;;;;;4936249;29;20028;-82
2022/08/08 08:15:04;;;;;;;4.22;2.95;;;23.50;1.00;;;;;;4936063;29;20038;-82
2022/08/08 08:17:29;;;;;;;4.00;2.85;;;24.30;1.00;;;;;;4935898;29;20047;-82
2022/08/08 08:20:01;;;;;;;5.60;3.03;;;25.30;1.00;;;;;;4936321;29;20032;-82
2022/08/08 08:22:27;;;;;;;4.90;3.40;;;24.70;1.00;;;;;;4936233;29;20443;-82
2022/08/08 08:24:52;;;;;;;5.85;3.13;;;24.50;1.00;;;;;;4936152;29;20111;-82
2022/08/08 08:27:20;;;;;;;4.40;3.20;;;24.50;1.00;;;;;;4936560;29;20103;-82
2022/08/08 08:29:46;;;;;;;3.17;2.85;;;24.90;1.00;;;;;;4951308;28;20035;-82
2022/08/08 08:32:12;;;;;;;8.80;2.90;;;25.40;1.00;;;;;;4955166;29;20035;-82
2022/08/08 08:34:38;;;;;;;3.30;2.60;;;25.70;1.00;;;;;;4955199;29;20027;-82
2022/08/08 08:37:04;;;;;;;3.78;2.88;;;25.90;1.00;;;;;;4997695;28;20136;-82
2022/08/08 08:39:30;;;;;;;3.90;3.00;;;25.60;1.00;;;;;;5035389;28;20029;-82
2022/08/08 08:41:57;;;;;;;6.32;3.17;;;25.80;1.00;;;;;;5035433;28;20601;-82
2022/08/08 08:44:24;;;;;;;3.65;3.28;;;26.00;1.00;;;;;;5034973;28;20067;-82
2022/08/08 08:46:51;;;;;;;4.35;2.92;;;26.20;1.00;;;;;;5035341;28;20100;-83
2022/08/08 08:49:17;;;;;;;4.63;3.10;;;26.20;1.00;;;;;;5035398;28;20436;-82
2022/08/08 08:51:45;;;;;;;4.90;3.58;;;26.00;1.00;;;;;;5035135;28;20063;-82
2022/08/08 08:54:11;;;;;;;3.70;2.88;;;25.60;1.00;;;;;;5034446;28;20048;-81
2022/08/08 08:56:37;;;;;;;3.15;2.95;;;25.60;1.00;;;;;;5035115;28;20132;-81
2022/08/08 08:59:04;;;;;;;3.65;3.35;;;25.60;1.00;;;;;;5034403;28;20494;-81
2022/08/08 09:01:34;;;;;;;4.07;3.35;;;25.20;1.00;;;;;;5034549;28;20432;-81
2022/08/08 09:04:08;;;;;;;3.47;3.17;;;25.10;1.00;;;;;;5016075;28;20034;-81
2022/08/08 09:06:38;;;;;;;8.52;3.45;;;25.50;1.00;;;;;;5034807;28;20036;-82
2022/08/08 09:09:24;;;;;;;3.25;3.05;;;25.50;1.00;;;;;;5034828;28;20061;-82
2022/08/08 09:11:52;;;;;;;8.40;3.40;;;25.20;1.00;;;;;;5033605;28;20052;-82
2022/08/08 09:14:22;;;;;;;6.80;3.45;;;25.20;1.00;;;;;;5034874;28;20029;-81
2022/08/08 09:16:49;;;;;;;4.75;3.03;;;24.90;1.00;;;;;;5034233;28;20049;-81
2022/08/08 09:19:16;;;;;;;4.90;2.90;;;25.10;1.00;;;;;;5034825;28;20045;-81
2022/08/08 09:21:43;;;;;;;4.05;3.40;;;25.10;1.00;;;;;;5033855;28;20021;-82
2022/08/08 09:24:09;;;;;;;3.17;2.92;;;25.30;1.00;;;;;;5033859;28;20025;-82
2022/08/08 09:26:44;;;;;;;3.60;3.05;;;25.80;1.00;;;;;;5034005;28;20041;-81
2022/08/08 09:29:20;;;;;;;3.40;3.10;;;25.50;1.00;;;;;;5034073;28;20025;-82
2022/08/08 09:31:54;;;;;;;3.40;3.03;;;25.80;1.00;;;;;;5034075;28;20195;-82
2022/08/08 09:34:23;;;;;;;5.88;3.05;;;26.20;1.00;;;;;;5034044;28;20444;-82
2022/08/08 09:36:56;;;;;;;3.58;3.10;;;26.40;1.00;;;;;;5034355;28;20030;-81
2022/08/08 09:39:27;;;;;;;3.88;3.35;;;26.50;1.00;;;;;;5015114;28;20080;-81
2022/08/08 09:42:01;;;;;;;5.40;3.30;;;26.20;1.00;;;;;;5014323;28;20552;-82
2022/08/08 09:44:53;;;;;;;4.88;2.88;;;26.20;1.00;;;;;;5033645;28;20068;-82
2022/08/08 09:47:22;;;;;;;4.30;3.03;;;26.40;1.00;;;;;;5023844;28;20482;-82
2022/08/08 09:49:48;;;;;;;5.07;3.05;;;26.60;1.00;;;;;;5033987;28;20532;-81
2022/08/08 09:52:20;;;;;;;3.45;2.90;;;26.90;1.00;;;;;;5034501;28;20509;-81
2022/08/08 09:54:48;;;;;;;4.30;3.17;;;26.50;1.00;;;;;;5033557;28;20021;-82
2022/08/08 09:57:18;;;;;;;3.75;3.30;;;26.10;1.00;;;;;;5033973;28;20369;-81
2022/08/08 09:59:47;;;;;;;3.83;3.22;;;26.00;1.00;;;;;;5033491;28;20033;-81
2022/08/08 10:02:23;;;;;;;4.13;3.38;;;26.50;1.00;;;;;;5033794;28;20029;-81
2022/08/08 10:04:50;;;;;;;3.20;2.90;;;26.40;1.00;;;;;;5033448;28;20075;-81
2022/08/08 10:07:16;;;;;;;3.55;3.28;;;26.60;1.00;;;;;;5034459;28;20026;-81
2022/08/08 10:09:48;;;;;;;3.42;3.10;;;26.60;1.00;;;;;;5032824;28;20033;-82
2022/08/08 10:12:14;;;;;;;3.92;3.25;;;26.20;1.00;;;;;;5033528;28;20041;-81
2022/08/08 10:14:40;;;;;;;3.63;3.33;;;26.50;1.00;;;;;;5030906;28;20022;-82
2022/08/08 10:17:08;;;;;;;3.58;3.22;;;26.80;1.00;;;;;;5009259;28;20041;-81
2022/08/08 10:19:39;;;;;;;4.32;3.28;;;27.20;1.00;;;;;;5023004;28;20038;-81
2022/08/08 10:22:06;;;;;;;5.85;3.05;;;26.80;1.00;;;;;;5018965;28;20018;-81
2022/08/08 10:24:33;;;;;;;5.85;3.28;;;26.70;1.00;;;;;;5017517;28;20030;-81
2022/08/08 10:27:04;;;;;;;3.50;3.20;;;27.00;1.00;;;;;;5016598;28;20529;-81
2022/08/08 10:29:55;;;;;;;3.20;2.90;;;26.90;1.00;;;;;;5025130;28;20029;-81
2022/08/08 10:32:36;;;;;;;3.75;3.10;;;27.10;1.00;;;;;;5019374;28;20033;-81
2022/08/08 10:35:12;;;;;;;5.85;3.38;;;27.10;1.00;;;;;;5017565;28;20041;-81
2022/08/08 10:37:48;;;;;;;3.47;3.17;;;27.20;1.00;;;;;;5018631;28;20045;-82
2022/08/08 10:40:15;;;;;;;3.88;3.13;;;26.90;1.00;;;;;;5016444;28;20049;-81
2022/08/08 10:42:43;;;;;;;3.40;3.10;;;27.00;1.00;;;;;;5017752;28;20045;-82
2022/08/08 10:45:10;;;;;;;3.00;2.78;;;27.10;1.00;;;;;;5016961;28;20029;-81
2022/08/08 10:47:38;;;;;;;5.20;2.88;;;27.20;1.00;;;;;;5020540;28;20441;-82
2022/08/08 10:50:06;;;;;;;2.90;2.70;;;27.50;1.00;;;;;;5033164;28;20029;-86
2022/08/08 10:52:37;;;;;;;3.28;3.00;;;27.60;1.00;;;;;;5032823;28;20485;-82
2022/08/08 10:55:12;;;;;;;6.78;2.90;;;27.50;1.00;;;;;;5032475;28;20431;-82
2022/08/08 10:57:42;;;;;;;3.47;2.92;;;27.70;1.00;;;;;;5032404;28;20037;-88
2022/08/08 11:00:10;;;;;;;3.22;2.80;;;28.20;1.00;;;;;;5032245;28;20041;-82
2022/08/08 11:02:36;;;;;;;4.13;3.25;;;28.50;1.00;;;;;;5032444;28;20037;-81
2022/08/08 11:05:05;;;;;;;3.30;2.53;;;29.80;1.00;;;;;;5031697;28;20434;-81
2022/08/08 11:07:34;;;;;;;3.63;2.78;;;32.70;1.00;;;;;;5032260;28;20025;-81
2022/08/08 11:10:05;;;;;;;6.88;2.90;;;35.50;1.00;;;;;;5032149;28;20100;-82
2022/08/08 11:12:33;;;;;;;4.13;3.00;;;37.50;1.00;;;;;;5022047;28;20022;-82
2022/08/08 11:14:59;;;;;;;2.83;2.63;;;39.90;99.90;;;;;;5032679;28;20025;-81
2022/08/08 11:17:32;;;;;;;4.85;2.60;;;40.40;99.90;;;;;;5031568;28;20568;-81
2022/08/08 11:19:58;;;;;;;3.05;2.53;;;40.70;99.90;;;;;;5033002;28;20075;-82
2022/08/08 11:22:26;;;;;;;2.38;2.28;;;40.80;99.90;;;;;;5031520;28;20030;-81
2022/08/08 11:25:00;;;;;;;2.97;2.35;;;39.80;99.90;;;;;;5032163;28;20033;-82
2022/08/08 11:27:30;;;;;;;2.80;2.60;;;41.80;99.90;;;;;;5032466;28;20040;-82
2022/08/08 11:29:59;;;;;;;2.60;2.50;;;41.10;99.90;;;;;;5032262;28;20029;-82
2022/08/08 11:32:32;;;;;;;2.97;2.60;;;41.30;99.90;;;;;;5031995;28;20171;-82
2022/08/08 11:35:05;;;;;;;2.90;2.63;;;42.40;99.90;;;;;;5032232;28;20120;-82
2022/08/08 11:37:32;;;;;;;3.78;2.45;;;42.10;99.90;;;;;;5031715;28;20056;-82
2022/08/08 11:40:00;;;;;;;2.97;2.60;;;43.60;99.90;;;;;;5032001;28;20099;-82
2022/08/08 11:42:26;;;;;;;2.60;2.40;;;42.00;99.90;;;;;;5012403;28;20109;-82
2022/08/08 11:44:54;;;;;;;2.60;2.50;;;41.70;99.90;;;;;;5012680;28;20476;-82
2022/08/08 11:47:22;;;;;;;2.53;2.33;;;42.70;99.90;;;;;;5031044;28;20493;-82
2022/08/08 11:49:55;;;;;;;2.50;2.30;;;42.40;99.90;;;;;;5032083;28;20099;-82
2022/08/08 11:52:22;;;;;;;3.25;2.40;;;41.70;99.90;;;;;;5031326;28;20049;-82
2022/08/08 11:54:48;;;;;;;2.35;2.25;;;43.10;99.90;;;;;;5031958;28;20389;-83
2022/08/08 11:57:17;;;;;;;2.47;2.25;;;44.10;99.90;;;;;;5031466;28;20041;-82
2022/08/08 11:59:57;;;;;;;2.45;2.35;;;44.30;99.90;;;;;;5032011;28;20021;-83
2022/08/08 12:02:26;;;;;;;3.42;2.20;;;44.60;99.90;;;;;;5032648;28;20026;-83
2022/08/08 12:05:09;;;;;;;2.58;2.38;;;44.70;99.90;;;;;;5031300;28;20018;-82
2022/08/08 12:07:50;;;;;;;4.10;2.40;;;45.20;99.90;;;;;;5012244;28;20487;-83
2022/08/08 12:10:19;;;;;;;2.67;2.47;;;44.20;99.90;;;;;;5013919;28;20018;-82
2022/08/08 12:12:46;;;;;;;2.20;2.00;;;44.40;99.90;;;;;;5031657;28;20029;-82
2022/08/08 12:15:23;;;;;;;2.63;2.00;;;43.40;99.90;;;;;;5031534;28;20413;-82
2022/08/08 12:17:49;;;;;;;2.95;2.30;;;44.20;99.90;;;;;;5024066;28;20116;-83
2022/08/08 12:20:15;;;;;;;2.28;2.08;;;44.10;99.90;;;;;;5014920;28;20129;-83
2022/08/08 12:22:51;;;;;;;2.28;2.03;;;44.20;99.90;;;;;;5014960;28;20099;-83
2022/08/08 12:25:23;;;;;;;3.78;2.10;;;45.40;99.90;;;;;;5030456;28;20382;-83
2022/08/08 12:27:49;;;;;;;2.60;2.40;;;44.30;99.90;;;;;;5027258;28;20057;-83
2022/08/08 12:30:15;;;;;;;3.28;2.35;;;43.60;99.90;;;;;;5031273;28;20036;-83
2022/08/08 12:32:46;;;;;;;3.42;2.60;;;44.30;99.90;;;;;;5031125;28;20029;-83
2022/08/08 12:35:22;;;;;;;2.25;2.08;;;45.40;99.90;;;;;;5031146;28;20025;-83
2022/08/08 12:38:08;;;;;;;2.72;2.03;;;45.30;99.90;;;;;;5011954;28;20038;-83
2022/08/08 12:40:48;;;;;;;2.00;1.90;;;44.00;99.90;;;;;;5029228;28;20029;-82
2022/08/08 12:43:15;;;;;;;2.60;2.40;;;44.60;99.90;;;;;;5031517;28;20089;-83
2022/08/08 12:45:43;;;;;;;3.33;2.40;;;45.10;99.90;;;;;;5031537;28;20379;-83
2022/08/08 12:48:20;;;;;;;4.40;2.10;;;45.30;99.90;;;;;;5028360;28;20399;-83
2022/08/08 12:50:53;;;;;;;2.55;2.17;;;44.80;99.90;;;;;;5029187;28;20036;-83
2022/08/08 12:53:27;;;;;;;3.00;2.30;;;45.20;99.90;;;;;;5021749;28;20033;-84
2022/08/08 12:56:03;;;;;;;2.33;2.00;;;45.50;99.90;;;;;;5030608;28;20394;-83
2022/08/08 12:58:47;;;;;;;2.70;2.38;;;45.40;99.90;;;;;;5033749;28;20034;-83
2022/08/08 13:01:13;;;;;;;3.72;2.15;;;44.80;99.90;;;;;;5035236;28;20026;-82
2022/08/08 13:03:48;;;;;;;2.50;2.15;;;44.00;99.90;;;;;;5033343;28;20478;-82
2022/08/08 13:06:17;;;;;;;2.92;2.17;;;41.80;99.90;;;;;;5015009;28;20390;-83
2022/08/08 13:08:52;;;;;;;2.35;2.15;;;40.70;99.90;;;;;;5018295;28;20481;-83
2022/08/08 13:11:31;;;;;;;2.30;2.10;;;42.30;99.90;;;;;;5015050;28;20040;-83
2022/08/08 13:14:11;;;;;;;2.63;2.20;;;43.30;99.90;;;;;;5031726;28;20053;-83
2022/08/08 13:16:38;;;;;;;2.80;2.33;;;43.30;99.90;;;;;;5034838;28;20038;-83
2022/08/08 13:19:06;;;;;;;2.42;2.22;;;42.70;99.90;;;;;;5034504;28;20573;-82
2022/08/08 13:21:32;;;;;;;2.47;2.10;;;43.20;99.90;;;;;;5034748;28;20033;-83
2022/08/08 13:23:58;;;;;;;3.78;2.33;;;41.80;99.90;;;;;;5034730;28;20037;-83
2022/08/08 13:26:31;;;;;;;2.35;2.15;;;40.00;99.90;;;;;;5034579;28;20413;-83
2022/08/08 13:28:58;;;;;;;3.75;2.35;;;40.20;99.90;;;;;;5034833;28;20045;-83
2022/08/08 13:31:23;;;;;;;2.67;2.47;;;41.10;99.90;;;;;;5034584;28;20105;-82
2022/08/08 13:33:49;;;;;;;2.80;2.25;;;40.90;99.90;;;;;;5034302;28;20097;-83